sensor_id;sensor_type;location;lat;lon;timestamp;P1;durP1;ratioP1;P2;durP2;ratioP2
5343;SDS011;2694;48.954;8.928;2024-01-11T00:00:37;45.22;;;21.48;;
5343;SDS011;2694;48.954;8.928;2024-01-11T00:03:03;52.28;;;22.98;;
5343;SDS011;2694;48.954;8.928;2024-01-11T00:05:30;55.35;;;21.95;;
5343;SDS011;2694;48.954;8.928;2024-01-11T00:07:57;44.30;;;19.42;;
5343;SDS011;2694;48.954;8.928;2024-01-11T00:10:24;45.33;;;19.33;;
5343;SDS011;2694;48.954;8.928;2024-01-11T00:12:51;46.83;;;19.33;;
5343;SDS011;2694;48.954;8.928;2024-01-11T00:15:19;41.22;;;18.05;;
5343;SDS011;2694;48.954;8.928;2024-01-11T00:17:47;45.07;;;19.90;;
5343;SDS011;2694;48.954;8.928;2024-01-11T00:20:14;47.20;;;20.40;;
5343;SDS011;2694;48.954;8.928;2024-01-11T00:22:41;44.35;;;17.98;;
5343;SDS011;2694;48.954;8.928;2024-01-11T00:25:08;47.17;;;20.50;;
5343;SDS011;2694;48.954;8.928;2024-01-11T00:27:35;44.88;;;18.40;;
5343;SDS011;2694;48.954;8.928;2024-01-11T00:30:02;38.35;;;18.52;;
5343;SDS011;2694;48.954;8.928;2024-01-11T00:32:33;46.00;;;20.63;;
5343;SDS011;2694;48.954;8.928;2024-01-11T00:34:59;44.58;;;20.42;;
5343;SDS011;2694;48.954;8.928;2024-01-11T00:37:26;43.73;;;19.10;;
5343;SDS011;2694;48.954;8.928;2024-01-11T00:39:55;43.07;;;19.47;;
5343;SDS011;2694;48.954;8.928;2024-01-11T00:42:22;45.25;;;19.45;;
5343;SDS011;2694;48.954;8.928;2024-01-11T00:44:49;51.90;;;20.45;;
5343;SDS011;2694;48.954;8.928;2024-01-11T00:47:17;41.63;;;19.58;;
5343;SDS011;2694;48.954;8.928;2024-01-11T00:49:46;50.15;;;20.20;;
5343;SDS011;2694;48.954;8.928;2024-01-11T00:52:12;46.60;;;20.10;;
5343;SDS011;2694;48.954;8.928;2024-01-11T00:54:39;49.70;;;21.17;;
5343;SDS011;2694;48.954;8.928;2024-01-11T00:57:06;45.75;;;19.15;;
5343;SDS011;2694;48.954;8.928;2024-01-11T00:59:33;41.25;;;18.10;;
5343;SDS011;2694;48.954;8.928;2024-01-11T01:02:00;43.70;;;20.45;;
5343;SDS011;2694;48.954;8.928;2024-01-11T01:04:27;42.13;;;19.42;;
5343;SDS011;2694;48.954;8.928;2024-01-11T01:06:55;42.97;;;19.05;;
5343;SDS011;2694;48.954;8.928;2024-01-11T01:09:23;44.90;;;18.42;;
5343;SDS011;2694;48.954;8.928;2024-01-11T01:11:50;39.80;;;18.35;;
5343;SDS011;2694;48.954;8.928;2024-01-11T01:14:17;42.33;;;18.77;;
5343;SDS011;2694;48.954;8.928;2024-01-11T01:16:43;48.17;;;18.50;;
5343;SDS011;2694;48.954;8.928;2024-01-11T01:19:10;48.50;;;20.17;;
5343;SDS011;2694;48.954;8.928;2024-01-11T01:21:38;43.80;;;18.83;;
5343;SDS011;2694;48.954;8.928;2024-01-11T01:24:06;45.65;;;19.65;;
5343;SDS011;2694;48.954;8.928;2024-01-11T01:26:34;42.92;;;18.75;;
5343;SDS011;2694;48.954;8.928;2024-01-11T01:29:02;45.22;;;19.50;;
5343;SDS011;2694;48.954;8.928;2024-01-11T01:31:29;44.42;;;18.40;;
5343;SDS011;2694;48.954;8.928;2024-01-11T01:34:02;43.30;;;18.33;;
5343;SDS011;2694;48.954;8.928;2024-01-11T01:36:29;40.83;;;19.27;;
5343;SDS011;2694;48.954;8.928;2024-01-11T01:38:56;48.53;;;19.75;;
5343;SDS011;2694;48.954;8.928;2024-01-11T01:41:24;43.45;;;18.58;;
5343;SDS011;2694;48.954;8.928;2024-01-11T01:43:52;40.22;;;18.83;;
5343;SDS011;2694;48.954;8.928;2024-01-11T01:46:19;39.83;;;18.23;;
5343;SDS011;2694;48.954;8.928;2024-01-11T01:48:50;41.45;;;18.20;;
5343;SDS011;2694;48.954;8.928;2024-01-11T01:51:21;43.17;;;19.45;;
5343;SDS011;2694;48.954;8.928;2024-01-11T01:53:49;48.60;;;20.93;;
5343;SDS011;2694;48.954;8.928;2024-01-11T01:56:18;45.90;;;19.90;;
5343;SDS011;2694;48.954;8.928;2024-01-11T01:58:47;48.75;;;21.38;;
5343;SDS011;2694;48.954;8.928;2024-01-11T02:01:17;57.72;;;22.20;;
5343;SDS011;2694;48.954;8.928;2024-01-11T02:03:49;50.35;;;20.75;;
5343;SDS011;2694;48.954;8.928;2024-01-11T02:06:18;50.92;;;20.55;;
5343;SDS011;2694;48.954;8.928;2024-01-11T02:08:48;46.97;;;20.70;;
5343;SDS011;2694;48.954;8.928;2024-01-11T02:11:17;48.10;;;19.45;;
5343;SDS011;2694;48.954;8.928;2024-01-11T02:13:47;49.92;;;20.73;;
5343;SDS011;2694;48.954;8.928;2024-01-11T02:16:16;56.63;;;21.70;;
5343;SDS011;2694;48.954;8.928;2024-01-11T02:18:44;48.70;;;20.38;;
5343;SDS011;2694;48.954;8.928;2024-01-11T02:21:11;47.38;;;18.27;;
5343;SDS011;2694;48.954;8.928;2024-01-11T02:23:42;49.75;;;21.23;;
5343;SDS011;2694;48.954;8.928;2024-01-11T02:26:16;41.38;;;18.50;;
5343;SDS011;2694;48.954;8.928;2024-01-11T02:28:44;42.88;;;19.70;;
5343;SDS011;2694;48.954;8.928;2024-01-11T02:31:10;41.05;;;19.48;;
5343;SDS011;2694;48.954;8.928;2024-01-11T02:33:38;44.67;;;19.50;;
5343;SDS011;2694;48.954;8.928;2024-01-11T02:36:06;43.97;;;19.38;;
5343;SDS011;2694;48.954;8.928;2024-01-11T02:38:33;43.08;;;17.92;;
5343;SDS011;2694;48.954;8.928;2024-01-11T02:41:01;38.03;;;18.95;;
5343;SDS011;2694;48.954;8.928;2024-01-11T02:43:29;40.35;;;18.05;;
5343;SDS011;2694;48.954;8.928;2024-01-11T02:45:56;46.45;;;19.98;;
5343;SDS011;2694;48.954;8.928;2024-01-11T02:48:26;45.17;;;19.00;;
5343;SDS011;2694;48.954;8.928;2024-01-11T02:50:59;40.13;;;18.15;;
5343;SDS011;2694;48.954;8.928;2024-01-11T02:53:25;40.13;;;18.05;;
5343;SDS011;2694;48.954;8.928;2024-01-11T02:55:59;44.63;;;18.50;;
5343;SDS011;2694;48.954;8.928;2024-01-11T02:58:26;45.75;;;19.33;;
5343;SDS011;2694;48.954;8.928;2024-01-11T03:00:54;45.75;;;18.95;;
5343;SDS011;2694;48.954;8.928;2024-01-11T03:03:21;43.90;;;19.15;;
5343;SDS011;2694;48.954;8.928;2024-01-11T03:05:48;48.50;;;20.88;;
5343;SDS011;2694;48.954;8.928;2024-01-11T03:08:15;43.67;;;19.00;;
5343;SDS011;2694;48.954;8.928;2024-01-11T03:10:42;43.03;;;19.33;;
5343;SDS011;2694;48.954;8.928;2024-01-11T03:13:09;43.38;;;19.75;;
5343;SDS011;2694;48.954;8.928;2024-01-11T03:15:35;40.87;;;18.60;;
5343;SDS011;2694;48.954;8.928;2024-01-11T03:18:04;44.63;;;19.65;;
5343;SDS011;2694;48.954;8.928;2024-01-11T03:20:31;41.83;;;18.92;;
5343;SDS011;2694;48.954;8.928;2024-01-11T03:22:58;47.75;;;20.10;;
5343;SDS011;2694;48.954;8.928;2024-01-11T03:25:24;43.07;;;19.70;;
5343;SDS011;2694;48.954;8.928;2024-01-11T03:27:51;38.92;;;18.55;;
5343;SDS011;2694;48.954;8.928;2024-01-11T03:30:18;45.70;;;19.80;;
5343;SDS011;2694;48.954;8.928;2024-01-11T03:32:45;45.15;;;18.92;;
5343;SDS011;2694;48.954;8.928;2024-01-11T03:35:15;48.72;;;20.25;;
5343;SDS011;2694;48.954;8.928;2024-01-11T03:37:44;45.70;;;19.35;;
5343;SDS011;2694;48.954;8.928;2024-01-11T03:40:10;47.38;;;21.02;;
5343;SDS011;2694;48.954;8.928;2024-01-11T03:42:41;45.00;;;19.98;;
5343;SDS011;2694;48.954;8.928;2024-01-11T03:45:08;43.80;;;18.90;;
5343;SDS011;2694;48.954;8.928;2024-01-11T03:47:35;50.22;;;21.27;;
5343;SDS011;2694;48.954;8.928;2024-01-11T03:50:02;42.03;;;19.63;;
5343;SDS011;2694;48.954;8.928;2024-01-11T03:52:31;44.03;;;19.63;;
5343;SDS011;2694;48.954;8.928;2024-01-11T03:54:58;44.13;;;21.00;;
5343;SDS011;2694;48.954;8.928;2024-01-11T03:57:25;44.80;;;19.80;;
5343;SDS011;2694;48.954;8.928;2024-01-11T03:59:51;43.00;;;20.47;;
5343;SDS011;2694;48.954;8.928;2024-01-11T04:02:19;50.22;;;20.63;;
5343;SDS011;2694;48.954;8.928;2024-01-11T04:04:45;45.58;;;20.27;;
5343;SDS011;2694;48.954;8.928;2024-01-11T04:07:14;43.88;;;19.85;;
5343;SDS011;2694;48.954;8.928;2024-01-11T04:09:44;46.70;;;19.73;;
5343;SDS011;2694;48.954;8.928;2024-01-11T04:12:12;49.63;;;18.98;;
5343;SDS011;2694;48.954;8.928;2024-01-11T04:14:39;49.10;;;20.40;;
5343;SDS011;2694;48.954;8.928;2024-01-11T04:17:08;43.87;;;20.13;;
5343;SDS011;2694;48.954;8.928;2024-01-11T04:19:35;48.47;;;20.30;;
5343;SDS011;2694;48.954;8.928;2024-01-11T04:22:04;43.83;;;20.15;;
5343;SDS011;2694;48.954;8.928;2024-01-11T04:24:31;41.55;;;19.85;;
5343;SDS011;2694;48.954;8.928;2024-01-11T04:26:59;47.60;;;19.77;;
5343;SDS011;2694;48.954;8.928;2024-01-11T04:29:28;43.70;;;20.00;;
5343;SDS011;2694;48.954;8.928;2024-01-11T04:31:57;43.42;;;19.08;;
5343;SDS011;2694;48.954;8.928;2024-01-11T04:34:24;52.63;;;20.13;;
5343;SDS011;2694;48.954;8.928;2024-01-11T04:36:50;51.65;;;20.60;;
5343;SDS011;2694;48.954;8.928;2024-01-11T04:39:17;53.67;;;22.20;;
5343;SDS011;2694;48.954;8.928;2024-01-11T04:41:46;47.88;;;20.70;;
5343;SDS011;2694;48.954;8.928;2024-01-11T04:44:15;47.10;;;20.23;;
5343;SDS011;2694;48.954;8.928;2024-01-11T04:46:41;45.72;;;20.45;;
5343;SDS011;2694;48.954;8.928;2024-01-11T04:49:09;50.33;;;21.52;;
5343;SDS011;2694;48.954;8.928;2024-01-11T04:51:36;63.90;;;23.83;;
5343;SDS011;2694;48.954;8.928;2024-01-11T04:54:03;56.03;;;23.67;;
5343;SDS011;2694;48.954;8.928;2024-01-11T04:56:33;58.45;;;24.30;;
5343;SDS011;2694;48.954;8.928;2024-01-11T04:59:02;59.75;;;24.05;;
5343;SDS011;2694;48.954;8.928;2024-01-11T05:01:31;56.95;;;21.77;;
5343;SDS011;2694;48.954;8.928;2024-01-11T05:03:57;57.15;;;23.77;;
5343;SDS011;2694;48.954;8.928;2024-01-11T05:06:24;59.40;;;25.02;;
5343;SDS011;2694;48.954;8.928;2024-01-11T05:08:51;53.25;;;23.27;;
5343;SDS011;2694;48.954;8.928;2024-01-11T05:11:21;54.42;;;22.65;;
5343;SDS011;2694;48.954;8.928;2024-01-11T05:13:49;51.67;;;22.60;;
5343;SDS011;2694;48.954;8.928;2024-01-11T05:16:18;50.72;;;21.90;;
5343;SDS011;2694;48.954;8.928;2024-01-11T05:18:47;56.50;;;23.27;;
5343;SDS011;2694;48.954;8.928;2024-01-11T05:21:15;63.45;;;24.10;;
5343;SDS011;2694;48.954;8.928;2024-01-11T05:23:43;59.47;;;23.35;;
5343;SDS011;2694;48.954;8.928;2024-01-11T05:26:10;57.75;;;24.35;;
5343;SDS011;2694;48.954;8.928;2024-01-11T05:28:37;66.00;;;28.10;;
5343;SDS011;2694;48.954;8.928;2024-01-11T05:31:05;75.55;;;30.20;;
5343;SDS011;2694;48.954;8.928;2024-01-11T05:33:33;57.85;;;23.90;;
5343;SDS011;2694;48.954;8.928;2024-01-11T05:36:02;46.67;;;21.30;;
5343;SDS011;2694;48.954;8.928;2024-01-11T05:38:31;43.67;;;19.90;;
5343;SDS011;2694;48.954;8.928;2024-01-11T05:40:58;41.33;;;18.10;;
5343;SDS011;2694;48.954;8.928;2024-01-11T05:43:24;46.90;;;18.92;;
5343;SDS011;2694;48.954;8.928;2024-01-11T05:45:51;41.15;;;18.38;;
5343;SDS011;2694;48.954;8.928;2024-01-11T05:48:20;40.85;;;18.90;;
5343;SDS011;2694;48.954;8.928;2024-01-11T05:50:49;42.30;;;18.27;;
5343;SDS011;2694;48.954;8.928;2024-01-11T05:53:19;44.03;;;19.23;;
5343;SDS011;2694;48.954;8.928;2024-01-11T05:55:46;44.42;;;18.95;;
5343;SDS011;2694;48.954;8.928;2024-01-11T05:58:15;52.03;;;20.60;;
5343;SDS011;2694;48.954;8.928;2024-01-11T06:00:42;49.00;;;21.67;;
5343;SDS011;2694;48.954;8.928;2024-01-11T06:03:11;47.35;;;21.48;;
5343;SDS011;2694;48.954;8.928;2024-01-11T06:05:38;52.17;;;19.73;;
5343;SDS011;2694;48.954;8.928;2024-01-11T06:08:05;46.38;;;20.73;;
5343;SDS011;2694;48.954;8.928;2024-01-11T06:10:34;48.50;;;20.92;;
5343;SDS011;2694;48.954;8.928;2024-01-11T06:13:00;53.50;;;22.13;;
5343;SDS011;2694;48.954;8.928;2024-01-11T06:15:27;53.17;;;21.35;;
5343;SDS011;2694;48.954;8.928;2024-01-11T06:17:55;54.55;;;22.20;;
5343;SDS011;2694;48.954;8.928;2024-01-11T06:20:25;45.65;;;20.42;;
5343;SDS011;2694;48.954;8.928;2024-01-11T06:22:52;52.33;;;21.50;;
5343;SDS011;2694;48.954;8.928;2024-01-11T06:25:18;45.47;;;20.77;;
5343;SDS011;2694;48.954;8.928;2024-01-11T06:27:49;47.20;;;20.50;;
5343;SDS011;2694;48.954;8.928;2024-01-11T06:30:16;48.58;;;20.70;;
5343;SDS011;2694;48.954;8.928;2024-01-11T06:32:43;46.95;;;19.90;;
5343;SDS011;2694;48.954;8.928;2024-01-11T06:35:10;45.67;;;19.73;;
5343;SDS011;2694;48.954;8.928;2024-01-11T06:37:37;43.60;;;19.60;;
5343;SDS011;2694;48.954;8.928;2024-01-11T06:40:04;50.28;;;21.10;;
5343;SDS011;2694;48.954;8.928;2024-01-11T06:42:33;50.28;;;21.15;;
5343;SDS011;2694;48.954;8.928;2024-01-11T06:45:01;51.47;;;21.58;;
5343;SDS011;2694;48.954;8.928;2024-01-11T06:47:29;54.83;;;22.45;;
5343;SDS011;2694;48.954;8.928;2024-01-11T06:49:55;49.75;;;20.42;;
5343;SDS011;2694;48.954;8.928;2024-01-11T06:52:23;56.75;;;22.00;;
5343;SDS011;2694;48.954;8.928;2024-01-11T06:54:50;50.33;;;21.48;;
5343;SDS011;2694;48.954;8.928;2024-01-11T06:57:18;59.53;;;25.23;;
5343;SDS011;2694;48.954;8.928;2024-01-11T06:59:45;60.47;;;25.38;;
5343;SDS011;2694;48.954;8.928;2024-01-11T07:02:14;56.67;;;24.23;;
5343;SDS011;2694;48.954;8.928;2024-01-11T07:04:43;57.10;;;24.65;;
5343;SDS011;2694;48.954;8.928;2024-01-11T07:07:10;48.42;;;23.30;;
5343;SDS011;2694;48.954;8.928;2024-01-11T07:09:37;59.47;;;24.20;;
5343;SDS011;2694;48.954;8.928;2024-01-11T07:12:04;59.95;;;25.17;;
5343;SDS011;2694;48.954;8.928;2024-01-11T07:14:31;57.78;;;24.95;;
5343;SDS011;2694;48.954;8.928;2024-01-11T07:16:58;59.20;;;25.50;;
5343;SDS011;2694;48.954;8.928;2024-01-11T07:19:26;63.38;;;25.55;;
5343;SDS011;2694;48.954;8.928;2024-01-11T07:21:53;66.93;;;26.08;;
5343;SDS011;2694;48.954;8.928;2024-01-11T07:24:20;60.92;;;25.48;;
5343;SDS011;2694;48.954;8.928;2024-01-11T07:26:47;68.30;;;24.77;;
5343;SDS011;2694;48.954;8.928;2024-01-11T07:29:14;52.47;;;23.50;;
5343;SDS011;2694;48.954;8.928;2024-01-11T07:31:41;57.50;;;24.40;;
5343;SDS011;2694;48.954;8.928;2024-01-11T07:34:07;66.10;;;26.95;;
5343;SDS011;2694;48.954;8.928;2024-01-11T07:36:35;82.60;;;32.03;;
5343;SDS011;2694;48.954;8.928;2024-01-11T07:39:03;100.50;;;35.95;;
5343;SDS011;2694;48.954;8.928;2024-01-11T07:41:31;90.32;;;33.10;;
5343;SDS011;2694;48.954;8.928;2024-01-11T07:43:57;68.72;;;29.92;;
5343;SDS011;2694;48.954;8.928;2024-01-11T07:46:25;68.70;;;28.13;;
5343;SDS011;2694;48.954;8.928;2024-01-11T07:48:52;75.60;;;30.40;;
5343;SDS011;2694;48.954;8.928;2024-01-11T07:51:18;76.32;;;31.17;;
5343;SDS011;2694;48.954;8.928;2024-01-11T07:53:47;64.50;;;27.83;;
5343;SDS011;2694;48.954;8.928;2024-01-11T07:56:14;65.00;;;25.23;;
5343;SDS011;2694;48.954;8.928;2024-01-11T07:58:40;53.28;;;22.10;;
5343;SDS011;2694;48.954;8.928;2024-01-11T08:01:07;54.13;;;22.75;;
5343;SDS011;2694;48.954;8.928;2024-01-11T08:03:35;54.33;;;23.70;;
5343;SDS011;2694;48.954;8.928;2024-01-11T08:06:03;55.80;;;24.87;;
5343;SDS011;2694;48.954;8.928;2024-01-11T08:08:32;54.30;;;24.40;;
5343;SDS011;2694;48.954;8.928;2024-01-11T08:11:00;68.70;;;27.63;;
5343;SDS011;2694;48.954;8.928;2024-01-11T08:13:28;61.65;;;27.35;;
5343;SDS011;2694;48.954;8.928;2024-01-11T08:15:56;55.75;;;25.15;;
5343;SDS011;2694;48.954;8.928;2024-01-11T08:18:23;56.80;;;23.30;;
5343;SDS011;2694;48.954;8.928;2024-01-11T08:20:51;54.00;;;23.67;;
5343;SDS011;2694;48.954;8.928;2024-01-11T08:23:18;59.58;;;22.33;;
5343;SDS011;2694;48.954;8.928;2024-01-11T08:25:45;51.17;;;21.77;;
5343;SDS011;2694;48.954;8.928;2024-01-11T08:28:14;49.17;;;22.23;;
5343;SDS011;2694;48.954;8.928;2024-01-11T08:30:41;54.70;;;21.92;;
5343;SDS011;2694;48.954;8.928;2024-01-11T08:33:07;55.03;;;23.70;;
5343;SDS011;2694;48.954;8.928;2024-01-11T08:35:34;53.35;;;23.08;;
5343;SDS011;2694;48.954;8.928;2024-01-11T08:38:01;53.70;;;24.42;;
5343;SDS011;2694;48.954;8.928;2024-01-11T08:40:29;62.55;;;26.02;;
5343;SDS011;2694;48.954;8.928;2024-01-11T08:42:55;54.78;;;24.55;;
5343;SDS011;2694;48.954;8.928;2024-01-11T08:45:24;56.80;;;24.30;;
5343;SDS011;2694;48.954;8.928;2024-01-11T08:47:51;57.85;;;25.45;;
5343;SDS011;2694;48.954;8.928;2024-01-11T08:50:18;55.35;;;24.85;;
5343;SDS011;2694;48.954;8.928;2024-01-11T08:52:46;54.83;;;24.88;;
5343;SDS011;2694;48.954;8.928;2024-01-11T08:55:13;56.85;;;25.83;;
5343;SDS011;2694;48.954;8.928;2024-01-11T08:57:40;63.45;;;26.85;;
5343;SDS011;2694;48.954;8.928;2024-01-11T09:00:07;66.88;;;26.77;;
5343;SDS011;2694;48.954;8.928;2024-01-11T09:02:36;53.92;;;26.25;;
5343;SDS011;2694;48.954;8.928;2024-01-11T09:05:03;59.00;;;25.08;;
5343;SDS011;2694;48.954;8.928;2024-01-11T09:07:32;53.50;;;25.98;;
5343;SDS011;2694;48.954;8.928;2024-01-11T09:09:59;53.95;;;25.33;;
5343;SDS011;2694;48.954;8.928;2024-01-11T09:12:25;60.75;;;25.60;;
5343;SDS011;2694;48.954;8.928;2024-01-11T09:14:52;55.03;;;24.67;;
5343;SDS011;2694;48.954;8.928;2024-01-11T09:17:19;57.40;;;25.45;;
5343;SDS011;2694;48.954;8.928;2024-01-11T09:19:48;56.47;;;26.02;;
5343;SDS011;2694;48.954;8.928;2024-01-11T09:22:14;57.33;;;26.07;;
5343;SDS011;2694;48.954;8.928;2024-01-11T09:24:41;56.03;;;25.48;;
5343;SDS011;2694;48.954;8.928;2024-01-11T09:27:08;56.97;;;25.07;;
5343;SDS011;2694;48.954;8.928;2024-01-11T09:29:35;55.47;;;26.17;;
5343;SDS011;2694;48.954;8.928;2024-01-11T09:32:03;56.03;;;24.55;;
5343;SDS011;2694;48.954;8.928;2024-01-11T09:34:30;51.20;;;22.30;;
5343;SDS011;2694;48.954;8.928;2024-01-11T09:36:58;52.92;;;23.58;;
5343;SDS011;2694;48.954;8.928;2024-01-11T09:39:25;59.17;;;24.08;;
5343;SDS011;2694;48.954;8.928;2024-01-11T09:41:57;51.05;;;22.58;;
5343;SDS011;2694;48.954;8.928;2024-01-11T09:44:29;53.93;;;23.10;;
5343;SDS011;2694;48.954;8.928;2024-01-11T09:46:57;56.53;;;23.50;;
5343;SDS011;2694;48.954;8.928;2024-01-11T09:49:26;55.22;;;23.27;;
5343;SDS011;2694;48.954;8.928;2024-01-11T09:51:56;56.20;;;22.60;;
5343;SDS011;2694;48.954;8.928;2024-01-11T09:54:24;53.03;;;23.88;;
5343;SDS011;2694;48.954;8.928;2024-01-11T09:56:52;49.83;;;24.10;;
5343;SDS011;2694;48.954;8.928;2024-01-11T09:59:20;47.25;;;21.08;;
5343;SDS011;2694;48.954;8.928;2024-01-11T10:01:48;48.30;;;22.00;;
5343;SDS011;2694;48.954;8.928;2024-01-11T10:04:16;47.40;;;21.73;;
5343;SDS011;2694;48.954;8.928;2024-01-11T10:06:43;46.53;;;21.77;;
5343;SDS011;2694;48.954;8.928;2024-01-11T10:09:10;50.13;;;22.02;;
5343;SDS011;2694;48.954;8.928;2024-01-11T10:11:39;46.08;;;21.20;;
5343;SDS011;2694;48.954;8.928;2024-01-11T10:14:06;55.33;;;20.92;;
5343;SDS011;2694;48.954;8.928;2024-01-11T10:16:33;55.40;;;21.45;;
5343;SDS011;2694;48.954;8.928;2024-01-11T10:19:02;48.72;;;20.95;;
5343;SDS011;2694;48.954;8.928;2024-01-11T10:21:29;45.75;;;21.10;;
5343;SDS011;2694;48.954;8.928;2024-01-11T10:23:57;44.35;;;20.27;;
5343;SDS011;2694;48.954;8.928;2024-01-11T10:26:25;44.03;;;21.85;;
5343;SDS011;2694;48.954;8.928;2024-01-11T10:28:53;44.92;;;20.83;;
5343;SDS011;2694;48.954;8.928;2024-01-11T10:31:24;49.03;;;21.48;;
5343;SDS011;2694;48.954;8.928;2024-01-11T10:33:54;52.70;;;22.23;;
5343;SDS011;2694;48.954;8.928;2024-01-11T10:36:21;45.30;;;21.52;;
5343;SDS011;2694;48.954;8.928;2024-01-11T10:38:48;44.67;;;20.60;;
5343;SDS011;2694;48.954;8.928;2024-01-11T10:41:17;41.90;;;20.48;;
5343;SDS011;2694;48.954;8.928;2024-01-11T10:43:45;45.75;;;20.88;;
5343;SDS011;2694;48.954;8.928;2024-01-11T10:46:17;46.50;;;22.10;;
5343;SDS011;2694;48.954;8.928;2024-01-11T10:48:47;48.65;;;21.17;;
5343;SDS011;2694;48.954;8.928;2024-01-11T10:51:17;50.88;;;23.02;;
5343;SDS011;2694;48.954;8.928;2024-01-11T10:53:49;48.47;;;22.35;;
5343;SDS011;2694;48.954;8.928;2024-01-11T10:56:18;50.67;;;22.07;;
5343;SDS011;2694;48.954;8.928;2024-01-11T10:58:47;48.47;;;23.23;;
5343;SDS011;2694;48.954;8.928;2024-01-11T11:01:16;49.63;;;22.67;;
5343;SDS011;2694;48.954;8.928;2024-01-11T11:03:44;46.50;;;21.00;;
5343;SDS011;2694;48.954;8.928;2024-01-11T11:06:12;47.58;;;22.25;;
5343;SDS011;2694;48.954;8.928;2024-01-11T11:08:39;47.47;;;20.95;;
5343;SDS011;2694;48.954;8.928;2024-01-11T11:11:07;56.95;;;24.38;;
5343;SDS011;2694;48.954;8.928;2024-01-11T11:13:35;44.35;;;21.15;;
5343;SDS011;2694;48.954;8.928;2024-01-11T11:16:02;46.75;;;22.23;;
5343;SDS011;2694;48.954;8.928;2024-01-11T11:18:31;47.83;;;22.77;;
5343;SDS011;2694;48.954;8.928;2024-01-11T11:21:00;46.83;;;22.33;;
5343;SDS011;2694;48.954;8.928;2024-01-11T11:23:27;45.10;;;21.13;;
5343;SDS011;2694;48.954;8.928;2024-01-11T11:25:54;47.05;;;21.38;;
5343;SDS011;2694;48.954;8.928;2024-01-11T11:28:22;51.53;;;22.27;;
5343;SDS011;2694;48.954;8.928;2024-01-11T11:30:49;48.28;;;23.05;;
5343;SDS011;2694;48.954;8.928;2024-01-11T11:33:19;50.35;;;22.40;;
5343;SDS011;2694;48.954;8.928;2024-01-11T11:35:49;46.75;;;22.77;;
5343;SDS011;2694;48.954;8.928;2024-01-11T11:38:19;48.13;;;22.65;;
5343;SDS011;2694;48.954;8.928;2024-01-11T11:40:47;51.38;;;22.63;;
5343;SDS011;2694;48.954;8.928;2024-01-11T11:43:15;48.60;;;22.35;;
5343;SDS011;2694;48.954;8.928;2024-01-11T11:45:44;51.70;;;23.05;;
5343;SDS011;2694;48.954;8.928;2024-01-11T11:51:18;50.92;;;22.95;;
5343;SDS011;2694;48.954;8.928;2024-01-11T11:53:46;47.13;;;21.48;;
5343;SDS011;2694;48.954;8.928;2024-01-11T11:56:15;48.80;;;22.77;;
5343;SDS011;2694;48.954;8.928;2024-01-11T11:58:44;47.00;;;22.13;;
5343;SDS011;2694;48.954;8.928;2024-01-11T12:01:12;49.73;;;22.97;;
5343;SDS011;2694;48.954;8.928;2024-01-11T12:03:40;49.25;;;23.25;;
5343;SDS011;2694;48.954;8.928;2024-01-11T12:06:14;48.85;;;22.75;;
5343;SDS011;2694;48.954;8.928;2024-01-11T12:08:43;50.88;;;22.17;;
5343;SDS011;2694;48.954;8.928;2024-01-11T12:11:12;51.65;;;23.67;;
5343;SDS011;2694;48.954;8.928;2024-01-11T12:13:39;48.78;;;22.60;;
5343;SDS011;2694;48.954;8.928;2024-01-11T12:16:07;51.13;;;23.35;;
5343;SDS011;2694;48.954;8.928;2024-01-11T12:18:33;50.97;;;23.17;;
5343;SDS011;2694;48.954;8.928;2024-01-11T12:21:00;52.35;;;22.90;;
5343;SDS011;2694;48.954;8.928;2024-01-11T12:23:27;49.58;;;22.10;;
5343;SDS011;2694;48.954;8.928;2024-01-11T12:25:57;50.47;;;23.90;;
5343;SDS011;2694;48.954;8.928;2024-01-11T12:28:24;56.53;;;23.83;;
5343;SDS011;2694;48.954;8.928;2024-01-11T12:30:51;47.28;;;21.83;;
5343;SDS011;2694;48.954;8.928;2024-01-11T12:33:18;44.25;;;22.70;;
5343;SDS011;2694;48.954;8.928;2024-01-11T12:35:45;53.47;;;22.58;;
5343;SDS011;2694;48.954;8.928;2024-01-11T12:38:13;46.95;;;23.45;;
5343;SDS011;2694;48.954;8.928;2024-01-11T12:40:40;49.90;;;22.77;;
5343;SDS011;2694;48.954;8.928;2024-01-11T12:43:08;48.20;;;22.70;;
5343;SDS011;2694;48.954;8.928;2024-01-11T12:45:38;50.97;;;23.02;;
5343;SDS011;2694;48.954;8.928;2024-01-11T12:48:06;47.47;;;22.00;;
5343;SDS011;2694;48.954;8.928;2024-01-11T12:50:34;49.88;;;21.90;;
5343;SDS011;2694;48.954;8.928;2024-01-11T12:53:05;47.38;;;23.15;;
5343;SDS011;2694;48.954;8.928;2024-01-11T12:55:33;50.22;;;23.17;;
5343;SDS011;2694;48.954;8.928;2024-01-11T12:58:04;53.47;;;23.00;;
5343;SDS011;2694;48.954;8.928;2024-01-11T13:00:33;49.17;;;24.23;;
5343;SDS011;2694;48.954;8.928;2024-01-11T13:02:59;49.55;;;22.98;;
5343;SDS011;2694;48.954;8.928;2024-01-11T13:05:26;53.78;;;24.13;;
5343;SDS011;2694;48.954;8.928;2024-01-11T13:07:53;47.10;;;22.40;;
5343;SDS011;2694;48.954;8.928;2024-01-11T13:10:21;48.80;;;22.77;;
5343;SDS011;2694;48.954;8.928;2024-01-11T13:12:52;54.13;;;24.55;;
5343;SDS011;2694;48.954;8.928;2024-01-11T13:15:19;46.25;;;22.35;;
5343;SDS011;2694;48.954;8.928;2024-01-11T13:17:48;47.25;;;22.45;;
5343;SDS011;2694;48.954;8.928;2024-01-11T13:20:15;44.80;;;21.93;;
5343;SDS011;2694;48.954;8.928;2024-01-11T13:22:42;48.55;;;23.30;;
5343;SDS011;2694;48.954;8.928;2024-01-11T13:25:09;46.72;;;22.90;;
5343;SDS011;2694;48.954;8.928;2024-01-11T13:27:36;50.03;;;22.80;;
5343;SDS011;2694;48.954;8.928;2024-01-11T13:30:03;46.95;;;23.00;;
5343;SDS011;2694;48.954;8.928;2024-01-11T13:32:33;50.33;;;23.05;;
5343;SDS011;2694;48.954;8.928;2024-01-11T13:35:01;53.50;;;23.88;;
5343;SDS011;2694;48.954;8.928;2024-01-11T13:37:29;41.40;;;20.52;;
5343;SDS011;2694;48.954;8.928;2024-01-11T13:39:56;49.72;;;22.13;;
5343;SDS011;2694;48.954;8.928;2024-01-11T13:42:22;45.15;;;21.13;;
5343;SDS011;2694;48.954;8.928;2024-01-11T13:44:49;47.63;;;23.03;;
5343;SDS011;2694;48.954;8.928;2024-01-11T13:47:16;45.60;;;22.17;;
5343;SDS011;2694;48.954;8.928;2024-01-11T13:49:43;50.50;;;22.90;;
5343;SDS011;2694;48.954;8.928;2024-01-11T13:52:12;43.95;;;21.70;;
5343;SDS011;2694;48.954;8.928;2024-01-11T13:54:39;47.17;;;21.75;;
5343;SDS011;2694;48.954;8.928;2024-01-11T13:57:05;52.20;;;23.20;;
5343;SDS011;2694;48.954;8.928;2024-01-11T13:59:33;46.60;;;22.58;;
5343;SDS011;2694;48.954;8.928;2024-01-11T14:02:00;49.72;;;23.02;;
5343;SDS011;2694;48.954;8.928;2024-01-11T14:04:27;48.23;;;22.80;;
5343;SDS011;2694;48.954;8.928;2024-01-11T14:06:53;47.42;;;22.75;;
5343;SDS011;2694;48.954;8.928;2024-01-11T14:09:22;45.97;;;21.77;;
5343;SDS011;2694;48.954;8.928;2024-01-11T14:11:49;53.55;;;24.08;;
5343;SDS011;2694;48.954;8.928;2024-01-11T14:14:16;45.08;;;21.88;;
5343;SDS011;2694;48.954;8.928;2024-01-11T14:16:43;47.30;;;22.00;;
5343;SDS011;2694;48.954;8.928;2024-01-11T14:19:11;49.42;;;21.73;;
5343;SDS011;2694;48.954;8.928;2024-01-11T14:21:38;45.33;;;21.63;;
5343;SDS011;2694;48.954;8.928;2024-01-11T14:24:05;46.80;;;20.80;;
5343;SDS011;2694;48.954;8.928;2024-01-11T14:26:33;49.40;;;22.50;;
5343;SDS011;2694;48.954;8.928;2024-01-11T14:29:00;47.33;;;21.65;;
5343;SDS011;2694;48.954;8.928;2024-01-11T14:31:27;46.25;;;20.67;;
5343;SDS011;2694;48.954;8.928;2024-01-11T14:33:54;47.50;;;21.83;;
5343;SDS011;2694;48.954;8.928;2024-01-11T14:36:21;45.85;;;21.83;;
5343;SDS011;2694;48.954;8.928;2024-01-11T14:38:48;47.25;;;21.83;;
5343;SDS011;2694;48.954;8.928;2024-01-11T14:41:15;46.03;;;21.58;;
5343;SDS011;2694;48.954;8.928;2024-01-11T14:43:43;42.92;;;19.67;;
5343;SDS011;2694;48.954;8.928;2024-01-11T14:46:11;45.35;;;21.60;;
5343;SDS011;2694;48.954;8.928;2024-01-11T14:48:38;41.33;;;20.27;;
5343;SDS011;2694;48.954;8.928;2024-01-11T14:51:06;44.67;;;20.20;;
5343;SDS011;2694;48.954;8.928;2024-01-11T14:53:33;42.15;;;20.10;;